WetterOnline ( http://www.wetteronline.at )

Wetter aktuell Norderney

Aktuelles Wetter: Norderney (16m)

6-stündlich | Neueste Meldungen
Ortszeit Temperatur Wetter
Di, 22.01. 1:00 0.6° C bedeckt
Mo, 21.01. 19:00 0.8° C fast wolkenlos
Mo, 21.01. 13:00 3.0° C bewölkt
Mo, 21.01. 7:00 -0.5° C bewölkt
Mo, 21.01. 1:00 -1.5° C wolkenlos
So, 20.01. 19:00 -0.9° C leicht bewölkt
So, 20.01. 13:00 0.2° C bedeckt
So, 20.01. 7:00 -3.1° C leicht bewölkt
Ortszeit Temperatur Wetter
Di, 22.01. 2:30 0.2° C wolkig
Di, 22.01. 2:20 0.2° C wolkig
Di, 22.01. 2:10 0.4° C bewölkt
Di, 22.01. 2:00 0.4° C bewölkt
Di, 22.01. 1:50 0.4° C bewölkt
Di, 22.01. 1:40 0.4° C bedeckt
Di, 22.01. 1:30 0.4° C bedeckt
Di, 22.01. 1:00 0.6° C bedeckt
Di, 22.01. 0:30 0.7° C bedeckt
Di, 22.01. 0:00 0.7° C bedeckt
Mo, 21.01. 23:30 0.7° C bedeckt
Ortszeit Relative Feuchte Sichtweite
Di, 22.01. 1:00 94% 5.0 km
Mo, 21.01. 19:00 96% 2.3 km
Mo, 21.01. 13:00 89% 9 km
Mo, 21.01. 7:00 81% 18 km
Mo, 21.01. 1:00 87% 12 km
So, 20.01. 19:00 86% 16 km
So, 20.01. 13:00 81% 17 km
So, 20.01. 7:00 92% 9 km
Ortszeit Relative Feuchte Sichtweite
Di, 22.01. 2:30 92% 7 km
Di, 22.01. 2:20 92% -
Di, 22.01. 2:10 92% -
Di, 22.01. 2:00 93% 7 km
Di, 22.01. 1:50 93% -
Di, 22.01. 1:40 94% -
Di, 22.01. 1:30 94% 6 km
Di, 22.01. 1:00 94% 5.0 km
Di, 22.01. 0:30 94% 6 km
Di, 22.01. 0:00 95% 5.0 km
Mo, 21.01. 23:30 96% 3.9 km
Ortszeit Niederschlagsmenge Niederschlagsart
Di, 22.01. 1:00 0.0 l/m2 in 6 Std. -
Mo, 21.01. 19:00 0.1 l/m2 in 12 Std. -
Mo, 21.01. 13:00 0.1 l/m2 in 6 Std. Sprühregen
Mo, 21.01. 7:00 0.0 l/m2 in 12 Std. -
Mo, 21.01. 1:00 0.0 l/m2 in 6 Std. -
So, 20.01. 19:00 0.0 l/m2 in 12 Std. -
So, 20.01. 13:00 0.0 l/m2 in 6 Std. -
So, 20.01. 7:00 0.0 l/m2 in 12 Std. -
Ortszeit Niederschlagsmenge Niederschlagsart
Di, 22.01. 2:30 0.0 l/m2 in 1 Std. -
Di, 22.01. 2:20 keine Meldung -
Di, 22.01. 2:10 keine Meldung -
Di, 22.01. 2:00 0.0 l/m2 in 1 Std. -
Di, 22.01. 1:50 keine Meldung -
Di, 22.01. 1:40 keine Meldung -
Di, 22.01. 1:30 0.0 l/m2 in 1 Std. -
Di, 22.01. 1:00 0.0 l/m2 in 1 Std. -
Di, 22.01. 0:30 0.0 l/m2 in 1 Std. -
Di, 22.01. 0:00 0.0 l/m2 in 1 Std. -
Mo, 21.01. 23:30 0.0 l/m2 in 1 Std. -
Ortszeit Stärke Spitze Richtung
km/h Bft. km/h Grad Sektor
Di, 22.01. 1:00 17 3 28 180° S
Mo, 21.01. 19:00 11 2 25 190° S
Mo, 21.01. 13:00 13 3 30 220° SW
Mo, 21.01. 7:00 14 3 25 210° SW
Mo, 21.01. 1:00 9 2 17 190° S
So, 20.01. 19:00 9 2 15 140° SO
So, 20.01. 13:00 11 2 18 130° SO
So, 20.01. 7:00 6 1 22 110° O
Ortszeit Stärke Spitze Richtung
km/h Bft. km/h Grad Sektor
Di, 22.01. 2:30 17 3 26 170° S
Di, 22.01. 2:20 17 3 - 170° S
Di, 22.01. 2:10 17 3 - 170° S
Di, 22.01. 2:00 17 3 28 180° S
Di, 22.01. 1:50 17 3 - 180° S
Di, 22.01. 1:40 14 3 - 180° S
Di, 22.01. 1:30 14 3 29 180° S
Di, 22.01. 1:00 17 3 28 180° S
Di, 22.01. 0:30 17 3 28 180° S
Di, 22.01. 0:00 14 3 25 180° S
Mo, 21.01. 23:30 15 3 24 180° S
Ortszeit Untergrenze Bedeckung Gattung
total tief tief mittel hoch
Di, 22.01. 1:00 1500 m 8/8 8/8 - - -
Mo, 21.01. 19:00 1800 m 1/8 - - - -
Mo, 21.01. 13:00 210 m 7/8 7/8 - - -
Mo, 21.01. 7:00 3300 m 7/8 7/8 - - -
Mo, 21.01. 1:00 - 0/8 0/8 - - -
So, 20.01. 19:00 3600 m 2/8 2/8 - - -
So, 20.01. 13:00 3300 m 8/8 8/8 - - -
So, 20.01. 7:00 4200 m 3/8 3/8 - - -
Ortszeit Bedeckungsgrad in Achtel und Wolkenuntergrenze
Di, 22.01. 2:30 3(780m) 8(7500m)
Di, 22.01. 2:20 3(780m) 8(7500m)
Di, 22.01. 2:10 4(750m) 6(1500m) 8(7800m)
Di, 22.01. 2:00 7(1500m) 8(8100m) 8(7800m)
Di, 22.01. 1:50 7(1500m) 8(8100m)
Di, 22.01. 1:40 8(1500m)
Di, 22.01. 1:30 8(1500m)
Di, 22.01. 1:00 8(1500m)
Di, 22.01. 0:30 8(1470m)
Di, 22.01. 0:00 4(180m) 8(1500m)
Mo, 21.01. 23:30 7(120m) 8(1500m)
Ortszeit Luftdruck NN (hPa) Tendenz (hPa in 3 Std.)
Di, 22.01. 1:00 1014 - 2,2
Mo, 21.01. 19:00 1018 - 1,0
Mo, 21.01. 13:00 1020 - 0,9
Mo, 21.01. 7:00 1021 - 0,8
Mo, 21.01. 1:00 1023 + 0,7
So, 20.01. 19:00 1021 + 1,1
So, 20.01. 13:00 1020 + 1,0
So, 20.01. 7:00 1018 + 0,4
Ortszeit Luftdruck NN (hPa) Tendenz (hPa in 3 Std.)
Di, 22.01. 2:30 1013 - 2,4
Di, 22.01. 2:20 1013 keine Meldung
Di, 22.01. 2:10 1013 keine Meldung
Di, 22.01. 2:00 1014 - 2,3
Di, 22.01. 1:50 1014 keine Meldung
Di, 22.01. 1:40 1014 keine Meldung
Di, 22.01. 1:30 1014 - 2,4
Di, 22.01. 1:00 1014 - 2,2
Di, 22.01. 0:30 1015 - 1,9
Di, 22.01. 0:00 1015 - 1,9
Mo, 21.01. 23:30 1016 - 1,6
Ortszeit Schneehöhe (cm)
Di, 22.01. 1:00 0
Mo, 21.01. 19:00 0
Mo, 21.01. 13:00 0
Mo, 21.01. 7:00 0
Mo, 21.01. 1:00 0
So, 20.01. 19:00 0
So, 20.01. 13:00 0
So, 20.01. 7:00 0
Ortszeit Schneehöhe (cm)
Di, 22.01. 2:30 0
Di, 22.01. 2:20 0
Di, 22.01. 2:10 0
Di, 22.01. 2:00 0
Di, 22.01. 1:50 0
Di, 22.01. 1:40 0
Di, 22.01. 1:30 0
Di, 22.01. 1:00 0
Di, 22.01. 0:30 0
Di, 22.01. 0:00 0
Mo, 21.01. 23:30 0
Link zu dieser Seite / Seite empfehlen

Das Wetter in ...